Time;durP1;ratioP1;P1;durP2;ratioP2;P2;SDS_P1;SDS_P2;PMS_P1;PMS_P2;Temp;Humidity;BMP_temperature;BMP_pressure;BME280_temperature;BME280_humidity;BME280_pressure;Samples;Min_cycle;Max_cycle;Signal;HPM_P1;HPM_P2
2022/01/27 00:01:29;;;;;;;35.45;14.40;;;;;;;4.06;100.00;101442.97;5049031;28;20093;-77
2022/01/27 00:04:21;;;;;;;44.25;17.17;;;;;;;4.13;100.00;101439.78;5031576;28;20124;-78
2022/01/27 00:06:47;;;;;;;42.60;16.85;;;;;;;4.13;100.00;101436.31;5047997;28;20422;-79
2022/01/27 00:09:18;;;;;;;43.15;15.40;;;;;;;4.19;100.00;101423.53;5031979;28;20021;-79
2022/01/27 00:11:46;;;;;;;49.30;18.75;;;;;;;4.16;100.00;101423.72;5048447;28;20151;-77
2022/01/27 00:14:13;;;;;;;42.67;16.02;;;;;;;4.22;100.00;101418.03;5031377;28;20033;-79
2022/01/27 00:16:43;;;;;;;39.80;16.80;;;;;;;4.21;100.00;101403.13;5048221;28;20483;-78
2022/01/27 00:19:10;;;;;;;40.50;17.75;;;;;;;4.27;100.00;101383.34;5048096;28;20060;-77
2022/01/27 00:21:36;;;;;;;43.45;16.85;;;;;;;4.29;100.00;101364.75;5031469;28;20029;-80
2022/01/27 00:24:02;;;;;;;46.97;18.33;;;;;;;4.26;100.00;101367.59;5047608;28;20033;-79
2022/01/27 00:26:28;;;;;;;;;;;;;;;4.28;100.00;101363.03;5031849;28;20032;-80
2022/01/27 00:28:53;;;;;;;42.70;18.67;;;;;;;4.23;100.00;101329.84;5048090;28;19916;-76
2022/01/27 00:31:21;;;;;;;49.88;19.08;;;;;;;4.31;100.00;101325.81;5048368;28;20106;-77
2022/01/27 00:33:47;;;;;;;44.10;17.50;;;;;;;4.27;100.00;101327.84;5047685;28;20041;-79
2022/01/27 00:36:12;;;;;;;38.78;17.08;;;;;;;4.31;100.00;101331.97;5031484;28;20025;-80
2022/01/27 00:38:38;;;;;;;40.97;18.15;;;;;;;4.34;100.00;101330.91;5031113;28;20048;-78
2022/01/27 00:41:05;;;;;;;44.80;18.90;;;;;;;4.37;100.00;101320.09;5031109;28;20041;-78
2022/01/27 00:43:31;;;;;;;;;;;;;;;4.36;100.00;101294.63;5031551;28;20483;-79
2022/01/27 00:45:56;;;;;;;44.83;18.77;;;;;;;4.33;100.00;101294.84;5047673;28;19951;-78
2022/01/27 00:48:22;;;;;;;47.78;20.00;;;;;;;4.34;100.00;101278.88;5031351;28;20371;-78
2022/01/27 00:50:53;;;;;;;41.20;17.42;;;;;;;4.43;100.00;101287.94;5047699;28;20036;-77
2022/01/27 00:55:55;;;;;;;47.45;19.80;;;;;;;4.43;100.00;101264.16;5047362;28;20036;-75
2022/01/27 01:00:57;;;;;;;40.20;18.77;;;;;;;4.42;100.00;101254.53;5047373;28;20041;-77
2022/01/27 01:03:32;;;;;;;46.17;20.77;;;;;;;4.50;100.00;101235.47;5047537;28;20950;-76
2022/01/27 01:06:24;;;;;;;44.53;17.88;;;;;;;4.44;100.00;101215.59;5030872;28;20704;-78
2022/01/27 01:16:48;;;;;;;45.17;18.38;;;;;;;4.48;100.00;101201.22;5046861;28;20033;-77
2022/01/27 01:19:39;;;;;;;38.65;19.20;;;;;;;4.54;100.00;101214.00;5048207;28;20040;-75
2022/01/27 01:32:56;;;;;;;41.00;18.13;;;;;;;4.59;100.00;101189.84;5046661;28;20039;-77
2022/01/27 01:35:29;;;;;;;41.17;18.65;;;;;;;4.56;100.00;101180.31;5046390;28;20044;-77
2022/01/27 01:37:56;;;;;;;52.00;18.35;;;;;;;4.52;100.00;101185.94;5030408;28;20029;-78
2022/01/27 01:40:22;;;;;;;41.58;19.90;;;;;;;4.55;100.00;101178.66;5046826;28;20402;-77
2022/01/27 01:42:47;;;;;;;39.33;18.33;;;;;;;4.55;100.00;101181.28;5046417;28;20041;-77
2022/01/27 01:45:17;;;;;;;45.70;20.17;;;;;;;4.58;100.00;101185.50;5029498;28;20068;-76
2022/01/27 01:47:46;;;;;;;41.20;18.85;;;;;;;4.59;100.00;101180.13;5046315;28;20029;-79
2022/01/27 01:50:13;;;;;;;49.67;17.80;;;;;;;4.66;100.00;101175.22;5046535;28;20542;-76
2022/01/27 01:52:39;;;;;;;40.00;16.88;;;;;;;4.74;100.00;101166.72;5046233;28;20117;-75
2022/01/27 01:55:06;;;;;;;40.78;16.58;;;;;;;4.74;100.00;101149.03;5046175;28;20409;-78
2022/01/27 01:57:32;;;;;;;41.22;16.83;;;;;;;4.72;100.00;101150.94;5046135;28;20387;-77
2022/01/27 01:59:58;;;;;;;46.17;16.90;;;;;;;4.74;100.00;101127.03;5046008;28;20087;-77
2022/01/27 02:02:23;;;;;;;34.70;17.58;;;;;;;4.73;100.00;101114.75;5029450;28;20086;-76
2022/01/27 02:04:49;;;;;;;36.93;16.87;;;;;;;4.69;100.00;101137.94;5045745;28;20116;-75
2022/01/27 02:07:49;;;;;;;43.27;15.93;;;;;;;4.70;100.00;101133.50;5028635;28;20040;-77
2022/01/27 02:10:28;;;;;;;37.05;16.83;;;;;;;4.73;100.00;101114.75;5046052;28;20124;-74
2022/01/27 02:18:41;;;;;;;29.50;14.85;;;;;;;4.84;100.00;101069.81;4985587;28;20508;-76
2022/01/27 02:21:06;;;;;;;33.77;15.80;;;;;;;4.73;100.00;101062.72;4969220;28;20030;-78
2022/01/27 02:23:32;;;;;;;30.20;14.77;;;;;;;4.71;100.00;101056.69;4996802;28;20052;-79
2022/01/27 02:25:57;;;;;;;34.47;14.90;;;;;;;4.70;100.00;101062.09;5046376;28;20078;-77
2022/01/27 02:28:23;;;;;;;34.67;16.00;;;;;;;4.68;100.00;101074.59;5046398;28;20086;-79
2022/01/27 02:30:48;;;;;;;37.17;16.40;;;;;;;4.72;100.00;101068.94;5029714;28;20067;-75
2022/01/27 02:33:13;;;;;;;37.43;17.47;;;;;;;4.67;100.00;101075.56;5047815;28;20028;-75
2022/01/27 02:35:39;;;;;;;33.10;16.53;;;;;;;4.70;100.00;101078.78;5029405;28;20029;-76
2022/01/27 02:38:05;;;;;;;38.17;16.30;;;;;;;4.69;100.00;101065.69;5030004;28;20438;-76
2022/01/27 02:40:57;;;;;;;44.08;15.90;;;;;;;4.69;100.00;101071.84;5029441;28;20048;-76
2022/01/27 02:43:23;;;;;;;38.75;17.75;;;;;;;4.62;100.00;101060.88;5046350;28;20820;-76
2022/01/27 02:46:08;;;;;;;41.63;17.13;;;;;;;4.70;100.00;101051.50;5046275;28;20029;-75
2022/01/27 02:48:33;;;;;;;43.35;17.10;;;;;;;4.70;100.00;101040.94;5034487;28;20033;-75
2022/01/27 02:50:59;;;;;;;38.88;16.63;;;;;;;4.71;100.00;101017.00;5056666;28;20547;-77
2022/01/27 02:53:24;;;;;;;35.33;17.83;;;;;;;4.62;100.00;101034.41;5049534;28;20123;-76
2022/01/27 02:55:49;;;;;;;42.70;19.07;;;;;;;4.64;100.00;101042.25;5066105;28;20050;-76
2022/01/27 02:58:16;;;;;;;36.87;16.93;;;;;;;4.62;100.00;101036.22;5066300;28;20090;-77
2022/01/27 03:00:41;;;;;;;;;;;;;;;4.69;100.00;101033.97;5066688;28;20047;-79
2022/01/27 03:03:06;;;;;;;43.67;17.83;;;;;;;4.61;100.00;101022.16;5066277;28;19912;-81
2022/01/27 03:05:32;;;;;;;53.65;20.85;;;;;;;4.54;100.00;101018.31;5049074;28;20036;-80
2022/01/27 03:07:57;;;;;;;45.57;22.87;;;;;;;4.43;100.00;101018.28;5050056;28;20055;-77
2022/01/27 03:10:28;;;;;;;50.77;21.70;;;;;;;4.33;100.00;101010.22;5049422;28;20047;-76
2022/01/27 03:12:59;;;;;;;54.05;20.10;;;;;;;4.40;100.00;101031.72;5066408;28;20123;-75
2022/01/27 03:15:24;;;;;;;58.40;24.02;;;;;;;4.35;100.00;101034.69;5066080;28;20033;-77
2022/01/27 03:17:50;;;;;;;41.77;21.40;;;;;;;4.34;100.00;101035.66;5068871;28;20433;-76
2022/01/27 03:20:15;;;;;;;52.33;23.00;;;;;;;4.34;100.00;101035.66;5053134;28;20115;-77
2022/01/27 03:22:40;;;;;;;49.00;21.05;;;;;;;4.22;100.00;101031.31;5053629;28;20043;-79
2022/01/27 03:25:06;;;;;;;42.43;18.37;;;;;;;4.23;100.00;101033.81;5069286;28;20044;-76
2022/01/27 03:27:33;;;;;;;49.20;23.52;;;;;;;4.26;100.00;101042.47;5070038;28;20035;-79
2022/01/27 03:29:58;;;;;;;58.92;22.20;;;;;;;4.23;100.00;101033.81;5071476;28;20036;-77
2022/01/27 03:32:26;;;;;;;50.80;23.13;;;;;;;4.25;100.00;101035.50;5054745;28;20386;-78
2022/01/27 03:34:52;;;;;;;48.85;20.83;;;;;;;4.07;100.00;101027.97;5071171;28;20371;-77
2022/01/27 03:37:17;;;;;;;58.42;23.02;;;;;;;4.15;100.00;101038.00;5054069;28;20462;-80
2022/01/27 03:39:43;;;;;;;58.30;24.08;;;;;;;4.08;100.00;101031.50;5070546;28;20070;-79
2022/01/27 03:42:09;;;;;;;59.35;23.17;;;;;;;4.09;100.00;101041.09;5053963;28;20062;-76
2022/01/27 03:44:35;;;;;;;50.72;21.23;;;;;;;3.99;100.00;101023.28;5069676;28;20100;-77
2022/01/27 03:47:01;;;;;;;45.05;20.13;;;;;;;4.04;100.00;101038.78;5053789;28;20128;-77
2022/01/27 03:49:26;;;;;;;54.47;22.02;;;;;;;4.02;100.00;101038.88;5070180;28;20040;-79
2022/01/27 03:51:58;;;;;;;48.07;19.80;;;;;;;3.94;100.00;101025.41;5053595;28;20078;-78
2022/01/27 03:54:23;;;;;;;45.83;20.52;;;;;;;4.07;100.00;101051.75;5053350;28;20683;-75
2022/01/27 03:56:49;;;;;;;48.30;20.70;;;;;;;4.03;100.00;101037.13;5053754;28;20055;-76
2022/01/27 03:59:14;;;;;;;44.47;19.27;;;;;;;4.01;100.00;101026.66;5070175;28;20501;-77
2022/01/27 04:01:39;;;;;;;53.87;20.33;;;;;;;4.04;100.00;101041.44;5053440;28;20025;-79
2022/01/27 04:04:05;;;;;;;44.88;19.70;;;;;;;4.01;100.00;101024.00;5053386;28;20408;-76
2022/01/27 04:06:35;;;;;;;49.67;20.03;;;;;;;4.05;100.00;101043.13;5053858;28;20028;-77
2022/01/27 04:09:03;;;;;;;38.22;18.60;;;;;;;4.05;100.00;101032.56;5070789;28;20104;-79
2022/01/27 04:11:29;;;;;;;49.15;19.38;;;;;;;4.05;100.00;101045.78;5071814;28;20043;-79
2022/01/27 04:13:54;;;;;;;44.63;19.92;;;;;;;4.03;100.00;101047.69;5070797;28;20039;-77
2022/01/27 04:16:19;;;;;;;48.27;19.57;;;;;;;4.13;100.00;101034.63;5071334;28;20056;-78
2022/01/27 04:18:46;;;;;;;46.47;21.40;;;;;;;4.12;100.00;101023.22;5054507;28;20039;-78
2022/01/27 04:21:12;;;;;;;55.67;22.15;;;;;;;4.11;100.00;101018.88;5054976;28;20035;-78
2022/01/27 04:23:37;;;;;;;52.40;20.13;;;;;;;4.09;100.00;101010.22;5070704;28;20044;-79
2022/01/27 04:26:04;;;;;;;51.83;19.77;;;;;;;4.13;100.00;101009.03;5054806;28;20021;-79
2022/01/27 04:28:32;;;;;;;52.47;21.40;;;;;;;4.12;100.00;100994.16;5054456;28;20032;-79
2022/01/27 04:31:00;;;;;;;50.63;23.05;;;;;;;4.11;100.00;101008.31;5069176;28;20074;-77
2022/01/27 04:33:29;;;;;;;55.88;21.48;;;;;;;4.11;100.00;101003.03;5052924;28;20036;-78
2022/01/27 04:35:58;;;;;;;51.35;20.65;;;;;;;4.08;100.00;100997.16;5053282;28;20118;-79
2022/01/27 04:39:05;;;;;;;46.63;18.83;;;;;;;4.06;100.00;101002.53;5053475;28;20479;-78
2022/01/27 04:41:18;;;;;;;54.80;19.95;;;;;;;3.98;100.00;100989.03;5069158;28;20048;-78
2022/01/27 04:44:16;;;;;;;50.38;20.60;;;;;;;4.01;100.00;100971.16;5055254;28;20028;-78
2022/01/27 04:46:39;;;;;;;53.20;21.95;;;;;;;3.97;100.00;100990.84;5073707;28;20815;-80
2022/01/27 04:49:07;;;;;;;57.72;20.63;;;;;;;3.95;100.00;100990.09;5056500;28;20074;-79
2022/01/27 04:51:32;;;;;;;49.13;19.80;;;;;;;3.95;100.00;100997.19;5056268;28;20024;-79
2022/01/27 04:56:28;;;;;;;44.22;18.13;;;;;;;4.00;100.00;100988.00;5074216;28;20525;-80
2022/01/27 04:58:59;;;;;;;40.40;16.98;;;;;;;3.93;100.00;100988.53;5054026;28;20046;-79
2022/01/27 05:01:39;;;;;;;39.53;17.08;;;;;;;3.97;100.00;100985.56;5050016;28;20029;-80
2022/01/27 05:04:15;;;;;;;41.08;17.38;;;;;;;3.94;100.00;100982.31;5067431;28;20115;-78
2022/01/27 05:06:40;;;;;;;42.38;16.48;;;;;;;3.91;100.00;100993.94;5050602;28;20028;-79
2022/01/27 05:09:06;;;;;;;38.60;16.73;;;;;;;3.92;100.00;100998.25;5049624;28;20501;-77
2022/01/27 05:11:39;;;;;;;40.03;16.75;;;;;;;3.92;100.00;101013.28;5050161;28;20489;-79
2022/01/27 05:14:16;;;;;;;44.17;16.58;;;;;;;3.94;100.00;101000.81;5049263;28;20033;-78
2022/01/27 05:16:42;;;;;;;37.80;15.77;;;;;;;3.86;100.00;100987.31;5065943;28;20041;-77
2022/01/27 05:19:07;;;;;;;39.30;16.63;;;;;;;3.88;100.00;100991.50;5066052;28;20086;-77
2022/01/27 05:21:33;;;;;;;42.27;17.07;;;;;;;3.91;100.00;100980.75;5049693;28;20459;-76
2022/01/27 05:24:00;;;;;;;35.17;15.23;;;;;;;3.90;100.00;100989.59;5050262;28;20043;-77
2022/01/27 05:26:25;;;;;;;40.47;18.05;;;;;;;3.89;100.00;100987.09;5067418;28;20120;-77
2022/01/27 05:28:51;;;;;;;40.47;16.52;;;;;;;3.86;100.00;100982.03;5049964;28;20127;-79
2022/01/27 05:31:16;;;;;;;38.50;16.67;;;;;;;3.83;100.00;100969.06;5050604;28;20146;-78
2022/01/27 05:33:41;;;;;;;38.03;15.93;;;;;;;3.84;100.00;100974.22;5049514;28;20111;-76
2022/01/27 05:36:07;;;;;;;45.70;17.33;;;;;;;3.88;100.00;100972.19;5065665;28;20318;-78
2022/01/27 05:38:35;;;;;;;38.97;16.97;;;;;;;3.86;100.00;100971.44;5065997;28;20044;-77
2022/01/27 05:41:01;;;;;;;38.72;16.70;;;;;;;3.88;100.00;100974.81;5065106;28;20139;-78
2022/01/27 05:43:26;;;;;;;37.53;17.17;;;;;;;3.84;100.00;100955.75;5066450;28;20040;-78
2022/01/27 05:45:51;;;;;;;35.47;14.93;;;;;;;3.91;100.00;100970.19;5049357;28;20036;-78
2022/01/27 05:48:17;;;;;;;36.92;16.13;;;;;;;3.90;100.00;100963.19;5046246;28;20813;-78
2022/01/27 05:50:42;;;;;;;33.63;14.57;;;;;;;3.86;100.00;100955.59;5041079;28;20020;-77
2022/01/27 05:53:07;;;;;;;32.73;15.80;;;;;;;3.92;100.00;100968.38;5050667;28;20395;-77
2022/01/27 05:55:33;;;;;;;39.97;15.80;;;;;;;3.94;100.00;100966.47;5063547;28;20029;-75
2022/01/27 05:57:58;;;;;;;38.17;16.67;;;;;;;3.89;100.00;100965.97;5048778;28;20116;-77
2022/01/27 06:00:24;;;;;;;38.40;16.97;;;;;;;3.79;100.00;100934.09;5047545;28;20033;-78
2022/01/27 06:02:49;;;;;;;39.15;15.77;;;;;;;3.83;100.00;100946.13;5048259;28;20064;-79
2022/01/27 06:05:15;;;;;;;42.25;16.08;;;;;;;3.86;100.00;100939.75;5048429;28;20047;-78
2022/01/27 06:07:40;;;;;;;42.00;14.93;;;;;;;3.83;100.00;100950.56;5046707;28;20025;-77
2022/01/27 06:10:06;;;;;;;35.33;14.20;;;;;;;3.82;100.00;100936.53;5063377;28;20482;-77
2022/01/27 06:12:31;;;;;;;33.80;13.60;;;;;;;3.86;100.00;100951.16;5045999;28;20057;-78
2022/01/27 06:14:56;;;;;;;33.50;14.90;;;;;;;3.80;100.00;100949.81;5028903;28;20415;-77
2022/01/27 06:17:22;;;;;;;39.40;15.83;;;;;;;3.80;100.00;100917.31;5063251;28;20031;-76
2022/01/27 06:19:48;;;;;;;37.37;14.70;;;;;;;3.81;100.00;100943.56;5029909;28;20121;-77
2022/01/27 06:22:15;;;;;;;33.35;13.93;;;;;;;3.78;100.00;100937.69;5046647;28;20830;-77
2022/01/27 06:24:44;;;;;;;32.72;14.30;;;;;;;3.84;100.00;100933.75;5045171;28;20501;-77
2022/01/27 06:27:11;;;;;;;33.55;15.02;;;;;;;3.83;100.00;100934.72;5063955;28;20033;-77
2022/01/27 06:29:37;;;;;;;26.67;12.98;;;;;;;3.79;100.00;100942.88;5064253;28;20029;-76
2022/01/27 06:32:04;;;;;;;32.45;13.43;;;;;;;3.81;100.00;100948.03;5064422;28;20090;-75
2022/01/27 06:34:29;;;;;;;28.30;13.50;;;;;;;3.86;100.00;100934.47;5048064;28;20040;-80
2022/01/27 06:36:55;;;;;;;32.65;12.52;;;;;;;3.85;100.00;100932.81;5047293;28;20118;-77
2022/01/27 06:39:20;;;;;;;28.40;12.53;;;;;;;3.82;100.00;100928.59;5030278;28;20086;-77
2022/01/27 06:41:47;;;;;;;34.57;12.33;;;;;;;3.79;100.00;100919.09;5047006;28;20478;-78
2022/01/27 06:44:12;;;;;;;34.47;13.32;;;;;;;3.81;100.00;100927.72;5047728;28;20044;-78
2022/01/27 06:46:38;;;;;;;28.98;12.35;;;;;;;3.82;100.00;100912.75;5051733;28;20025;-76
2022/01/27 06:49:04;;;;;;;26.00;12.50;;;;;;;3.90;100.00;100926.22;5047157;28;20487;-75
2022/01/27 06:51:30;;;;;;;32.92;13.68;;;;;;;3.92;100.00;100920.81;5049703;28;20459;-78
2022/01/27 06:53:56;;;;;;;25.52;12.07;;;;;;;3.93;100.00;100920.72;5072888;28;20052;-76
2022/01/27 06:56:21;;;;;;;25.00;12.30;;;;;;;3.95;100.00;100918.78;5074288;28;20070;-76
2022/01/27 06:58:47;;;;;;;31.67;13.20;;;;;;;3.93;100.00;100917.22;5057231;28;20486;-77
2022/01/27 07:01:12;;;;;;;30.97;14.10;;;;;;;3.98;100.00;100912.41;5074240;28;20059;-78
2022/01/27 07:03:37;;;;;;;28.00;10.97;;;;;;;3.95;100.00;100896.81;5056937;28;20032;-76
2022/01/27 07:06:03;;;;;;;28.43;12.97;;;;;;;3.97;100.00;100908.09;5057585;28;20401;-75
2022/01/27 07:08:28;;;;;;;23.63;12.27;;;;;;;4.03;100.00;100902.38;5057243;28;20078;-76
2022/01/27 07:10:53;;;;;;;24.60;11.37;;;;;;;4.06;100.00;100914.50;5062047;28;20358;-77
2022/01/27 07:13:19;;;;;;;25.57;11.80;;;;;;;4.10;100.00;100911.50;5053825;28;20514;-76
2022/01/27 07:15:44;;;;;;;25.77;12.07;;;;;;;4.10;100.00;100906.22;5037462;28;20033;-77
2022/01/27 07:18:09;;;;;;;37.43;15.40;;;;;;;4.12;100.00;100901.66;5037497;28;20083;-77
2022/01/27 07:20:36;;;;;;;28.03;11.33;;;;;;;4.11;100.00;100894.69;5071006;28;20041;-77
2022/01/27 07:23:01;;;;;;;30.63;14.80;;;;;;;4.13;100.00;100905.97;5054381;28;20032;-77
2022/01/27 07:25:27;;;;;;;29.55;12.88;;;;;;;4.18;100.00;100890.59;5053629;28;20820;-77
2022/01/27 07:27:52;;;;;;;26.53;12.60;;;;;;;4.19;100.00;100878.22;5054125;28;20036;-78
2022/01/27 07:30:18;;;;;;;30.60;13.05;;;;;;;4.16;100.00;100871.38;5054200;28;20056;-76
2022/01/27 07:32:43;;;;;;;30.17;13.93;;;;;;;4.21;100.00;100879.81;5054750;28;20052;-76
2022/01/27 07:35:08;;;;;;;31.97;13.27;;;;;;;4.23;100.00;100880.53;5054440;28;20065;-77
2022/01/27 07:37:34;;;;;;;31.47;13.57;;;;;;;4.21;100.00;100877.19;5056283;28;20025;-77
2022/01/27 07:39:59;;;;;;;35.20;14.73;;;;;;;4.20;100.00;100883.41;5057210;28;20032;-77
2022/01/27 07:42:24;;;;;;;31.17;13.30;;;;;;;4.20;100.00;100874.66;5052095;28;20033;-79
2022/01/27 07:44:50;;;;;;;36.23;15.43;;;;;;;4.19;100.00;100873.81;5059562;28;20043;-77
2022/01/27 07:47:15;;;;;;;26.37;13.33;;;;;;;4.27;100.00;100875.84;5057187;28;20075;-77
2022/01/27 07:49:41;;;;;;;32.23;13.27;;;;;;;4.24;100.00;100862.88;5073421;28;20039;-76
2022/01/27 07:52:06;;;;;;;29.63;13.43;;;;;;;4.30;100.00;100866.84;5074946;28;20036;-76
2022/01/27 07:54:31;;;;;;;26.33;12.45;;;;;;;4.30;100.00;100866.84;5055765;28;20032;-78
2022/01/27 07:56:57;;;;;;;21.87;10.23;;;;;;;4.30;100.00;100870.31;5074839;28;20201;-77
2022/01/27 07:59:22;;;;;;;24.60;11.70;;;;;;;4.39;100.00;100874.91;5057002;28;20036;-78
2022/01/27 08:01:47;;;;;;;23.37;10.70;;;;;;;4.34;100.00;100849.78;5073040;28;20040;-77
2022/01/27 08:04:13;;;;;;;31.33;11.53;;;;;;;4.32;100.00;100860.47;5070444;28;20040;-75
2022/01/27 08:06:38;;;;;;;22.93;10.03;;;;;;;4.36;100.00;100854.00;5070120;28;20277;-76
2022/01/27 08:09:04;;;;;;;19.05;10.32;;;;;;;4.35;100.00;100830.31;5069775;28;20033;-76
2022/01/27 08:11:29;;;;;;;22.55;9.63;;;;;;;4.41;100.00;100854.47;5045878;28;20040;-76
2022/01/27 08:13:55;;;;;;;29.88;10.82;;;;;;;4.37;100.00;100850.38;5033035;28;20057;-77
2022/01/27 08:16:20;;;;;;;27.27;10.90;;;;;;;4.34;100.00;100840.06;5067792;28;20040;-78
2022/01/27 08:18:46;;;;;;;18.65;9.18;;;;;;;4.45;100.00;100841.88;5070088;28;20048;-78
2022/01/27 08:21:12;;;;;;;26.85;11.57;;;;;;;4.39;100.00;100839.69;5053017;28;20032;-77
2022/01/27 08:23:40;;;;;;;25.80;9.73;;;;;;;4.40;100.00;100844.00;5068669;28;20055;-76
2022/01/27 08:26:08;;;;;;;22.35;9.07;;;;;;;4.40;100.00;100849.28;5052861;28;20028;-77
2022/01/27 08:28:40;;;;;;;24.20;12.38;;;;;;;4.48;100.00;100846.91;5052392;28;20017;-77
2022/01/27 08:31:06;;;;;;;23.73;10.60;;;;;;;4.48;100.00;100846.06;5070313;28;20123;-79
2022/01/27 08:33:33;;;;;;;26.75;9.82;;;;;;;4.50;100.00;100850.28;5069907;28;20101;-77
2022/01/27 08:35:58;;;;;;;25.05;10.60;;;;;;;4.51;100.00;100833.44;5053082;28;20041;-76
2022/01/27 08:38:28;;;;;;;26.40;10.80;;;;;;;4.48;100.00;100841.63;5069822;28;20039;-78
2022/01/27 08:40:54;;;;;;;29.40;11.55;;;;;;;4.50;100.00;100839.69;5053676;28;20036;-77
2022/01/27 08:43:19;;;;;;;34.13;12.40;;;;;;;4.59;100.00;100848.72;5070332;28;20470;-79
2022/01/27 08:45:46;;;;;;;33.70;13.82;;;;;;;4.60;100.00;100851.22;5053156;28;20040;-77
2022/01/27 08:48:17;;;;;;;33.58;14.65;;;;;;;4.65;100.00;100843.75;5071296;28;20036;-79
2022/01/27 08:50:48;;;;;;;36.35;12.73;;;;;;;4.69;100.00;100840.91;5053883;28;20032;-79
2022/01/27 08:53:14;;;;;;;33.53;13.80;;;;;;;4.77;100.00;100843.75;5071073;28;20048;-79
2022/01/27 08:55:39;;;;;;;40.20;13.57;;;;;;;4.82;100.00;100850.38;5053882;28;20066;-77
2022/01/27 08:58:04;;;;;;;32.03;14.13;;;;;;;4.85;100.00;100849.28;5071776;28;20040;-79
2022/01/27 09:00:30;;;;;;;31.87;14.40;;;;;;;4.96;100.00;100851.88;5055358;28;20055;-79
2022/01/27 09:02:56;;;;;;;38.20;13.50;;;;;;;4.93;100.00;100846.00;5072016;28;20274;-78
2022/01/27 09:05:22;;;;;;;41.55;12.85;;;;;;;4.90;100.00;100836.53;5071431;28;20068;-79
2022/01/27 09:07:47;;;;;;;36.83;12.23;;;;;;;5.02;100.00;100855.84;5073864;28;20360;-76
2022/01/27 09:10:13;;;;;;;37.90;14.63;;;;;;;5.04;100.00;100843.34;5071674;28;20031;-75
2022/01/27 09:12:38;;;;;;;47.17;12.15;;;;;;;5.07;100.00;100851.88;5071887;28;20293;-80
2022/01/27 09:15:05;;;;;;;30.90;11.07;;;;;;;5.05;100.00;100845.84;5053914;28;20040;-80
2022/01/27 09:17:38;;;;;;;;;;;;;;;5.17;100.00;100854.59;5055412;28;20275;-79
2022/01/27 09:20:04;;;;;;;36.83;10.65;;;;;;;5.25;100.00;100843.41;5053891;28;19927;-77
2022/01/27 09:22:29;;;;;;;37.17;11.00;;;;;;;5.26;100.00;100842.44;5054027;28;20506;-78
2022/01/27 09:24:58;;;;;;;39.70;11.30;;;;;;;5.28;100.00;100845.78;5053884;28;20020;-79
2022/01/27 09:27:25;;;;;;;44.85;13.82;;;;;;;5.36;100.00;100847.81;5072494;28;20065;-76
2022/01/27 09:29:52;;;;;;;38.17;10.38;;;;;;;5.39;100.00;100848.41;5070197;28;20036;-79
2022/01/27 09:32:18;;;;;;;44.63;12.23;;;;;;;5.50;100.00;100840.41;5071676;28;20110;-77
2022/01/27 09:34:45;;;;;;;43.88;12.27;;;;;;;5.47;100.00;100843.31;5070014;28;20078;-78
2022/01/27 09:37:10;;;;;;;;;;;;;;;5.58;100.00;100836.28;5071783;28;20040;-79
2022/01/27 09:39:36;;;;;;;;;;;;;;;5.62;100.00;100841.22;5054938;28;20011;-78
2022/01/27 09:42:04;;;;;;;47.97;13.37;;;;;;;5.59;100.00;100828.19;5054306;28;20446;-78
2022/01/27 09:44:32;;;;;;;70.15;15.00;;;;;;;5.69;100.00;100829.13;5070841;28;20041;-77
2022/01/27 09:47:11;;;;;;;47.22;11.88;;;;;;;5.66;100.00;100817.94;5055171;28;20062;-76
2022/01/27 09:49:41;;;;;;;44.53;11.63;;;;;;;5.66;100.00;100802.03;5078143;28;20051;-78
2022/01/27 09:52:07;;;;;;;48.15;12.93;;;;;;;5.77;100.00;100812.56;5078613;28;20342;-77
2022/01/27 09:54:34;;;;;;;30.92;10.88;;;;;;;5.78;100.00;100797.50;5078132;28;20652;-76
2022/01/27 09:57:00;;;;;;;50.05;12.48;;;;;;;5.80;100.00;100791.13;5059274;28;20393;-78
2022/01/27 09:59:25;;;;;;;40.85;9.85;;;;;;;5.83;100.00;100787.34;5073805;28;20379;-77
2022/01/27 10:02:05;;;;;;;47.23;9.67;;;;;;;5.90;100.00;100792.03;5075032;28;20032;-78
2022/01/27 10:04:53;;;;;;;45.15;10.77;;;;;;;5.93;100.00;100772.38;5072657;28;20486;-77
2022/01/27 10:07:35;;;;;;;42.05;9.85;;;;;;;5.91;100.00;100764.53;5074284;28;20040;-77
2022/01/27 10:10:05;;;;;;;52.78;9.48;;;;;;;6.04;100.00;100774.13;5052930;28;20032;-78
2022/01/27 10:12:41;;;;;;;49.22;8.90;;;;;;;6.19;100.00;100753.41;5052044;28;20048;-78
2022/01/27 10:15:10;;;;;;;31.77;7.40;;;;;;;6.31;100.00;100750.50;5067441;28;20086;-77
2022/01/27 10:17:39;;;;;;;41.58;9.77;;;;;;;6.23;100.00;100741.56;5067558;28;20024;-76
2022/01/27 10:20:18;;;;;;;33.25;8.68;;;;;;;6.26;100.00;100741.28;5065765;28;20032;-76
2022/01/27 10:23:23;;;;;;;44.70;8.90;;;;;;;6.33;100.00;100735.31;5049072;28;20040;-76
2022/01/27 10:25:56;;;;;;;29.52;6.80;;;;;;;6.53;100.00;100732.69;5064852;28;20041;-76
2022/01/27 10:28:44;;;;;;;29.48;6.97;;;;;;;6.49;100.00;100712.75;5064724;28;20080;-76
2022/01/27 10:31:23;;;;;;;41.83;9.25;;;;;;;6.63;100.00;100706.19;5048513;28;20036;-77
2022/01/27 10:34:03;;;;;;;45.38;7.30;;;;;;;6.83;100.00;100688.47;5065911;28;20043;-76
2022/01/27 10:36:33;;;;;;;33.55;8.43;;;;;;;7.34;100.00;100688.13;5060637;28;20046;-77
2022/01/27 10:39:01;;;;;;;30.20;6.50;;;;;;;7.18;100.00;100669.28;5055519;28;20028;-77
2022/01/27 10:41:29;;;;;;;32.60;5.97;;;;;;;6.95;100.00;100669.63;5046995;28;20039;-77
2022/01/27 10:44:12;;;;;;;36.50;6.45;;;;;;;6.81;100.00;100655.91;5048871;28;20090;-77
2022/01/27 10:46:45;;;;;;;36.00;7.30;;;;;;;6.76;100.00;100635.94;5051781;28;20047;-77
2022/01/27 10:49:21;;;;;;;38.35;6.63;;;;;;;6.75;100.00;100652.84;5051670;28;20033;-77
2022/01/27 10:51:51;;;;;;;36.38;5.85;;;;;;;6.84;100.00;100647.69;5035762;28;20040;-78
2022/01/27 10:54:33;;;;;;;35.70;7.35;;;;;;;7.00;100.00;100629.38;5035513;28;20040;-77
2022/01/27 10:57:02;;;;;;;37.20;7.50;;;;;;;7.01;100.00;100615.13;5053823;28;20056;-76
2022/01/27 10:59:32;;;;;;;36.25;6.45;;;;;;;7.03;100.00;100623.78;5037573;28;20972;-78
2022/01/27 11:01:58;;;;;;;38.45;7.30;;;;;;;6.87;100.00;100608.44;5037538;28;20094;-77
2022/01/27 11:04:33;;;;;;;19.77;4.38;;;;;;;7.13;100.00;100608.66;5052304;28;20037;-78
2022/01/27 11:07:01;;;;;;;31.13;6.05;;;;;;;6.98;100.00;100599.47;5035676;28;20044;-77
2022/01/27 11:09:29;;;;;;;31.48;4.50;;;;;;;6.97;100.00;100589.84;5035038;28;20041;-77
2022/01/27 11:11:56;;;;;;;27.17;5.68;;;;;;;6.99;100.00;100593.19;5051954;28;20021;-78
2022/01/27 11:14:25;;;;;;;31.67;8.27;;;;;;;7.00;100.00;100586.91;5051247;28;20037;-78
2022/01/27 11:16:56;;;;;;;31.67;6.32;;;;;;;6.97;100.00;100571.25;5034810;28;20048;-77
2022/01/27 11:19:55;;;;;;;28.48;5.53;;;;;;;7.14;100.00;100577.63;5032002;28;20037;-77
2022/01/27 11:27:34;;;;;;;33.03;5.10;;;;;;;7.51;100.00;100545.75;5046160;28;20115;-77
2022/01/27 11:30:35;;;;;;;24.80;5.03;;;;;;;7.86;100.00;100552.13;5045737;28;20029;-77
2022/01/27 11:33:09;;;;;;;23.08;5.68;;;;;;;7.71;100.00;100511.94;5045015;28;20511;-77
2022/01/27 11:35:35;;;;;;;29.17;5.43;;;;;;;7.74;100.00;100494.88;5027457;28;20133;-77
2022/01/27 11:38:04;;;;;;;36.35;6.93;;;;;;;7.62;99.35;100480.97;5049270;28;20032;-76
2022/01/27 11:40:44;;;;;;;25.67;5.85;;;;;;;8.14;98.39;100498.91;5051374;28;20737;-76
2022/01/27 11:43:14;;;;;;;28.60;6.60;;;;;;;8.29;96.59;100475.25;5066466;28;20047;-76
2022/01/27 11:45:51;;;;;;;24.77;4.95;;;;;;;7.99;95.21;100446.28;5068392;28;20102;-76
2022/01/27 11:48:24;;;;;;;35.72;6.93;;;;;;;7.73;94.30;100435.56;5068475;28;20131;-76
2022/01/27 11:51:13;;;;;;;34.83;5.88;;;;;;;7.59;92.99;100409.53;5051816;28;20036;-76
2022/01/27 11:53:49;;;;;;;24.05;5.32;;;;;;;7.99;92.90;100425.00;5040641;28;20494;-76
2022/01/27 11:56:23;;;;;;;27.03;5.73;;;;;;;8.30;93.75;100458.31;5051317;28;20040;-76